createdAt,value
2022-11-20T00:00:45.836Z,12.20
2022-11-20T00:01:47.791Z,10.20
2022-11-20T00:02:49.531Z,12.90
2022-11-20T00:03:53.479Z,10.38
2022-11-20T00:04:55.174Z,10.55
2022-11-20T00:06:01.686Z,10.40
2022-11-20T00:07:03.649Z,9.77
2022-11-20T00:08:05.801Z,10.63
2022-11-20T00:09:08.006Z,9.15
2022-11-20T00:10:10.607Z,13.50
2022-11-20T00:11:20.783Z,10.55
2022-11-20T00:12:22.416Z,10.90
2022-11-20T00:13:24.541Z,11.65
2022-11-20T00:14:26.392Z,10.93
2022-11-20T00:15:28.517Z,9.05
2022-11-20T00:16:33.431Z,9.85
2022-11-20T00:17:35.202Z,10.02
2022-11-20T00:18:37.419Z,9.70
2022-11-20T00:19:39.937Z,9.43
2022-11-20T00:21:04.663Z,14.75
2022-11-20T00:22:08.092Z,9.40
2022-11-20T00:23:09.779Z,10.70
2022-11-20T00:24:11.822Z,9.35
2022-11-20T00:25:16.497Z,10.13
2022-11-20T00:26:20.504Z,12.15
2022-11-20T00:27:22.452Z,10.27
2022-11-20T00:28:28.220Z,9.32
2022-11-20T00:29:30.103Z,8.60
2022-11-20T00:30:31.804Z,10.63
2022-11-20T00:31:34.493Z,10.18
2022-11-20T00:32:36.181Z,9.95
2022-11-20T00:33:38.195Z,10.95
2022-11-20T00:34:40.080Z,9.18
2022-11-20T00:35:42.079Z,8.75
2022-11-20T00:36:43.999Z,11.52
2022-11-20T00:37:45.998Z,13.07
2022-11-20T00:38:48.533Z,10.18
2022-11-20T00:39:50.248Z,10.10
2022-11-20T00:41:00.122Z,13.80
2022-11-20T00:42:02.193Z,9.65
2022-11-20T00:43:04.026Z,11.55
2022-11-20T00:44:06.472Z,7.32
2022-11-20T00:45:08.667Z,10.90
2022-11-20T00:46:15.475Z,10.27
2022-11-20T00:47:18.737Z,10.18
2022-11-20T00:48:20.465Z,11.38
2022-11-20T00:49:22.750Z,9.00
2022-11-20T00:50:24.713Z,9.32
2022-11-20T00:51:27.976Z,11.10
2022-11-20T00:52:30.181Z,9.32
2022-11-20T00:53:32.429Z,8.05
2022-11-20T00:54:34.657Z,8.55
2022-11-20T00:55:36.436Z,7.63
2022-11-20T00:56:39.632Z,10.80
2022-11-20T00:57:41.379Z,8.80
2022-11-20T00:58:45.437Z,10.18
2022-11-20T00:59:47.192Z,10.63
2022-11-20T01:00:50.696Z,10.65
2022-11-20T01:01:52.451Z,10.55
2022-11-20T01:02:56.460Z,8.70
2022-11-20T01:04:01.934Z,9.63
2022-11-20T01:05:03.793Z,11.88
2022-11-20T01:06:18.294Z,10.35
2022-11-20T01:07:20.299Z,8.40
2022-11-20T01:08:22.489Z,9.45
2022-11-20T01:09:24.505Z,9.32
2022-11-20T01:10:26.575Z,10.35
2022-11-20T01:11:33.155Z,11.52
2022-11-20T01:12:34.805Z,8.48
2022-11-20T01:13:42.668Z,8.77
2022-11-20T01:14:44.485Z,13.40
2022-11-20T01:15:47.330Z,10.95
2022-11-20T01:16:51.828Z,9.05
2022-11-20T01:17:53.684Z,9.68
2022-11-20T01:18:58.544Z,12.80
2022-11-20T01:20:00.522Z,10.95
2022-11-20T01:21:08.390Z,13.48
2022-11-20T01:22:10.685Z,10.10
2022-11-20T01:23:12.602Z,12.43
2022-11-20T01:24:17.070Z,11.60
2022-11-20T01:25:18.808Z,9.07
2022-11-20T01:26:26.324Z,10.10
2022-11-20T01:27:28.137Z,8.00
2022-11-20T01:28:30.845Z,10.18
2022-11-20T01:29:32.566Z,10.88
2022-11-20T01:30:34.433Z,8.68
2022-11-20T01:31:38.123Z,8.75
2022-11-20T01:32:39.867Z,11.57
2022-11-20T01:33:43.264Z,10.43
2022-11-20T01:34:46.994Z,9.30
2022-11-20T01:35:49.565Z,8.50
2022-11-20T01:36:52.390Z,11.30
2022-11-20T01:37:54.161Z,9.95
2022-11-20T01:38:58.708Z,10.90
2022-11-20T01:40:00.416Z,12.40
2022-11-20T01:41:02.300Z,8.38
2022-11-20T01:42:22.586Z,7.47
2022-11-20T01:43:26.111Z,8.00
2022-11-20T01:44:49.495Z,9.70
2022-11-20T01:46:00.201Z,9.75
2022-11-20T01:47:07.753Z,11.15
2022-11-20T01:48:09.929Z,10.27
2022-11-20T01:49:25.010Z,8.18
2022-11-20T01:50:29.931Z,13.70
2022-11-20T01:51:53.218Z,8.18
2022-11-20T01:53:05.992Z,7.50
2022-11-20T01:54:17.088Z,10.82
2022-11-20T01:55:22.803Z,8.07
2022-11-20T01:56:26.351Z,8.10
2022-11-20T01:57:30.913Z,9.70
2022-11-20T01:58:36.775Z,10.77
2022-11-20T01:59:42.891Z,10.30
2022-11-20T02:00:44.989Z,7.93
2022-11-20T02:01:49.434Z,11.18
2022-11-20T02:03:06.778Z,10.07
2022-11-20T02:04:09.793Z,7.63
2022-11-20T02:05:47.683Z,8.40
2022-11-20T02:07:05.915Z,8.77
2022-11-20T02:08:08.192Z,9.50
2022-11-20T02:09:10.233Z,9.88
2022-11-20T02:10:12.977Z,9.55
2022-11-20T02:11:15.212Z,11.32
2022-11-20T02:12:35.501Z,9.40
2022-11-20T02:13:46.901Z,9.48
2022-11-20T02:14:48.639Z,8.85
2022-11-20T02:15:50.990Z,8.60
2022-11-20T02:16:53.388Z,9.48
2022-11-20T02:17:55.472Z,10.15
2022-11-20T02:19:01.458Z,9.40
2022-11-20T02:20:04.034Z,8.90
2022-11-20T02:21:18.549Z,10.90
2022-11-20T02:22:36.496Z,14.68
2022-11-20T02:23:43.564Z,6.75
2022-11-20T02:24:52.103Z,8.80
2022-11-20T02:25:55.680Z,11.90
2022-11-20T02:27:00.567Z,9.32
2022-11-20T02:28:03.025Z,12.48
2022-11-20T02:29:05.343Z,8.52
2022-11-20T02:30:08.958Z,8.52
2022-11-20T02:31:10.802Z,7.95
2022-11-20T02:32:24.761Z,8.48
2022-11-20T02:33:26.475Z,12.68
2022-11-20T02:34:28.500Z,11.30
2022-11-20T02:35:30.616Z,9.10
2022-11-20T02:36:34.620Z,9.20
2022-11-20T02:37:40.355Z,8.95
2022-11-20T02:38:43.398Z,8.00
2022-11-20T02:39:50.284Z,7.75
2022-11-20T02:40:55.540Z,7.50
2022-11-20T02:41:58.464Z,7.03
2022-11-20T02:43:00.428Z,5.45
2022-11-20T02:44:03.071Z,6.00
2022-11-20T02:45:06.526Z,6.00
2022-11-20T02:46:10.721Z,6.78
2022-11-20T02:47:12.651Z,6.82
2022-11-20T02:48:14.418Z,7.05
2022-11-20T02:49:18.372Z,6.43
2022-11-20T02:50:20.771Z,5.95
2022-11-20T02:51:22.764Z,5.60
2022-11-20T02:52:26.776Z,8.00
2022-11-20T02:53:29.107Z,7.43
2022-11-20T02:54:30.879Z,7.35
2022-11-20T02:55:32.936Z,5.45
2022-11-20T02:56:34.845Z,7.32
2022-11-20T02:57:36.683Z,6.72
2022-11-20T02:58:39.347Z,5.60
2022-11-20T02:59:42.220Z,5.85
2022-11-20T03:00:43.993Z,5.80
2022-11-20T03:01:46.079Z,4.60
2022-11-20T03:02:47.845Z,9.13
2022-11-20T03:03:50.433Z,5.25
2022-11-20T03:04:52.300Z,5.00
2022-11-20T03:05:54.230Z,4.80
2022-11-20T03:06:55.985Z,5.88
2022-11-20T03:07:57.734Z,5.10
2022-11-20T03:09:02.393Z,5.53
2022-11-20T03:10:05.280Z,6.05
2022-11-20T03:11:10.838Z,5.13
2022-11-20T03:12:12.575Z,4.80
2022-11-20T03:13:15.749Z,4.40
2022-11-20T03:14:18.942Z,5.55
2022-11-20T03:15:20.990Z,3.97
2022-11-20T03:16:24.337Z,6.68
2022-11-20T03:17:26.306Z,5.50
2022-11-20T03:18:30.036Z,5.03
2022-11-20T03:19:32.005Z,6.45
2022-11-20T03:20:35.166Z,7.40
2022-11-20T03:21:39.772Z,5.05
2022-11-20T03:22:41.916Z,5.80
2022-11-20T03:23:44.145Z,7.50
2022-11-20T03:24:45.843Z,5.40
2022-11-20T03:25:47.557Z,4.68
2022-11-20T03:26:50.755Z,5.55
2022-11-20T03:27:52.861Z,6.75
2022-11-20T03:28:57.305Z,5.00
2022-11-20T03:29:59.153Z,5.40
2022-11-20T03:31:13.423Z,6.15
2022-11-20T03:32:17.627Z,4.53
2022-11-20T03:33:19.619Z,5.22
2022-11-20T03:34:21.402Z,6.43
2022-11-20T03:35:23.260Z,6.72
2022-11-20T03:36:25.646Z,5.05
2022-11-20T03:37:27.696Z,4.88
2022-11-20T03:38:31.927Z,4.90
2022-11-20T03:39:33.848Z,4.72
2022-11-20T03:40:36.788Z,4.63
2022-11-20T03:41:42.898Z,5.38
2022-11-20T03:42:47.839Z,6.03
2022-11-20T03:44:05.638Z,7.07
2022-11-20T03:45:08.040Z,5.82
2022-11-20T03:46:09.899Z,5.93
2022-11-20T03:47:11.755Z,5.35
2022-11-20T03:48:13.555Z,5.60
2022-11-20T03:49:15.458Z,6.72
2022-11-20T03:50:17.368Z,5.53
2022-11-20T03:51:28.187Z,6.32
2022-11-20T03:52:29.984Z,8.10
2022-11-20T03:53:31.907Z,6.28
2022-11-20T03:54:33.926Z,5.57
2022-11-20T03:55:35.837Z,5.10
2022-11-20T03:56:39.168Z,5.50
2022-11-20T03:57:40.927Z,5.85
2022-11-20T03:58:42.820Z,7.15
2022-11-20T03:59:44.544Z,6.75
2022-11-20T04:00:46.387Z,5.93
2022-11-20T04:01:49.615Z,7.15
2022-11-20T04:02:53.024Z,4.63
2022-11-20T04:03:58.016Z,5.15
2022-11-20T04:04:59.830Z,5.72
2022-11-20T04:06:07.530Z,5.93
2022-11-20T04:07:09.628Z,5.65
2022-11-20T04:08:11.561Z,5.35
2022-11-20T04:09:14.361Z,5.47
2022-11-20T04:10:16.122Z,4.90
2022-11-20T04:11:23.728Z,5.85
2022-11-20T04:12:26.668Z,6.60
2022-11-20T04:13:28.401Z,4.70
2022-11-20T04:14:30.146Z,5.38
2022-11-20T04:15:35.721Z,6.00
2022-11-20T04:16:40.607Z,5.15
2022-11-20T04:17:42.559Z,5.68
2022-11-20T04:18:44.617Z,5.10
2022-11-20T04:19:46.743Z,6.57
2022-11-20T04:20:48.458Z,5.60
2022-11-20T04:23:08.206Z,4.78
2022-11-20T04:24:11.245Z,6.07
2022-11-20T04:25:13.013Z,4.78
2022-11-20T04:26:15.713Z,5.65
2022-11-20T04:27:17.525Z,6.60
2022-11-20T04:28:21.023Z,7.05
2022-11-20T04:29:23.081Z,7.85
2022-11-20T04:30:27.545Z,7.00
2022-11-20T04:31:33.331Z,4.43
2022-11-20T04:32:35.065Z,4.97
2022-11-20T04:33:40.388Z,5.20
2022-11-20T04:34:42.256Z,6.95
2022-11-20T04:35:45.424Z,7.13
2022-11-20T04:36:47.494Z,5.32
2022-11-20T04:37:52.370Z,6.78
2022-11-20T04:38:57.279Z,5.70
2022-11-20T04:39:59.280Z,5.20
2022-11-20T04:41:03.411Z,5.22
2022-11-20T04:42:23.951Z,5.85
2022-11-20T04:43:25.953Z,4.70
2022-11-20T04:44:27.660Z,4.70
2022-11-20T04:45:29.377Z,6.25
2022-11-20T04:46:33.709Z,5.82
2022-11-20T04:47:35.565Z,4.07
2022-11-20T04:48:37.422Z,5.95
2022-11-20T04:49:39.370Z,9.48
2022-11-20T04:50:42.026Z,7.28
2022-11-20T04:51:43.865Z,5.88
2022-11-20T04:52:45.599Z,5.80
2022-11-20T04:53:48.486Z,5.50
2022-11-20T04:54:51.379Z,5.00
2022-11-20T04:56:01.966Z,6.15
2022-11-20T04:57:03.730Z,6.15
2022-11-20T04:58:05.766Z,6.13
2022-11-20T04:59:07.717Z,4.63
2022-11-20T05:00:10.475Z,6.00
2022-11-20T05:01:18.747Z,7.78
2022-11-20T05:02:21.076Z,5.15
2022-11-20T05:03:22.890Z,4.95
2022-11-20T05:04:24.626Z,5.53
2022-11-20T05:05:26.616Z,7.55
2022-11-20T05:06:28.860Z,5.57
2022-11-20T05:07:30.608Z,5.88
2022-11-20T05:08:33.216Z,5.47
2022-11-20T05:09:35.321Z,5.65
2022-11-20T05:10:37.192Z,5.95
2022-11-20T05:11:38.954Z,6.80
2022-11-20T05:12:41.457Z,6.35
2022-11-20T05:13:43.385Z,6.13
2022-11-20T05:14:45.561Z,4.85
2022-11-20T05:15:47.354Z,6.40
2022-11-20T05:16:49.347Z,7.13
2022-11-20T05:17:52.515Z,7.25
2022-11-20T05:18:55.357Z,9.02
2022-11-20T05:19:57.128Z,6.50
2022-11-20T05:20:59.797Z,5.90
2022-11-20T05:22:01.510Z,5.90
2022-11-20T05:23:03.890Z,8.38
2022-11-20T05:24:07.140Z,6.20
2022-11-20T05:25:10.500Z,6.15
2022-11-20T05:26:19.235Z,5.90
2022-11-20T05:27:23.546Z,6.47
2022-11-20T05:28:26.711Z,5.35
2022-11-20T05:29:31.610Z,4.68
2022-11-20T05:30:34.011Z,6.47
2022-11-20T05:31:37.154Z,6.60
2022-11-20T05:32:38.987Z,5.07
2022-11-20T05:33:42.623Z,5.40
2022-11-20T05:34:44.450Z,5.43
2022-11-20T05:35:46.162Z,5.68
2022-11-20T05:36:48.784Z,6.53
2022-11-20T05:37:50.637Z,7.85
2022-11-20T05:38:56.712Z,5.47
2022-11-20T05:40:02.059Z,5.22
2022-11-20T05:41:19.854Z,5.05
2022-11-20T05:42:33.531Z,5.43
2022-11-20T05:43:39.876Z,6.63
2022-11-20T05:44:41.633Z,6.10
2022-11-20T05:45:43.467Z,5.95
2022-11-20T05:46:45.289Z,5.38
2022-11-20T05:47:48.431Z,4.38
2022-11-20T05:48:50.589Z,6.05
2022-11-20T05:49:56.090Z,6.00
2022-11-20T05:50:59.495Z,5.78
2022-11-20T05:52:01.503Z,7.90
2022-11-20T05:53:03.581Z,4.55
2022-11-20T05:54:05.480Z,5.45
2022-11-20T05:55:08.422Z,5.47
2022-11-20T05:56:22.184Z,8.32
2022-11-20T05:57:23.974Z,5.30
2022-11-20T05:58:25.823Z,6.25
2022-11-20T05:59:27.755Z,6.20
2022-11-20T06:00:29.802Z,5.97
2022-11-20T06:01:31.489Z,5.07
2022-11-20T06:02:37.039Z,5.22
2022-11-20T06:03:39.182Z,4.60
2022-11-20T06:04:41.082Z,5.68
2022-11-20T06:05:42.772Z,5.20
2022-11-20T06:06:44.642Z,4.63
2022-11-20T06:07:46.369Z,5.47
2022-11-20T06:08:49.470Z,5.00
2022-11-20T06:09:51.598Z,4.72
2022-11-20T06:10:53.880Z,7.18
2022-11-20T06:11:58.163Z,6.05
2022-11-20T06:13:00.407Z,6.10
2022-11-20T06:14:02.109Z,6.35
2022-11-20T06:15:06.809Z,5.55
2022-11-20T06:16:09.183Z,5.72
2022-11-20T06:17:11.013Z,6.32
2022-11-20T06:18:12.894Z,5.75
2022-11-20T06:19:14.873Z,4.97
2022-11-20T06:20:17.987Z,5.50
2022-11-20T06:21:23.112Z,6.20
2022-11-20T06:22:26.616Z,5.07
2022-11-20T06:23:30.846Z,7.45
2022-11-20T06:24:32.609Z,5.40
2022-11-20T06:25:34.309Z,6.05
2022-11-20T06:26:36.248Z,4.85
2022-11-20T06:27:37.926Z,4.68
2022-11-20T06:28:40.429Z,4.95
2022-11-20T06:29:42.170Z,5.20
2022-11-20T06:30:50.920Z,5.70
2022-11-20T06:31:52.919Z,3.88
2022-11-20T06:32:54.763Z,4.88
2022-11-20T06:33:56.672Z,5.15
2022-11-20T06:34:58.798Z,5.47
2022-11-20T06:36:05.877Z,5.50
2022-11-20T06:37:10.843Z,5.10
2022-11-20T06:38:13.061Z,5.15
2022-11-20T06:39:16.284Z,6.18
2022-11-20T06:40:20.423Z,5.70
2022-11-20T06:41:23.432Z,4.38
2022-11-20T06:42:26.386Z,6.28
2022-11-20T06:43:30.706Z,6.38
2022-11-20T06:44:32.409Z,5.45
2022-11-20T06:45:34.220Z,5.25
2022-11-20T06:46:36.037Z,5.15
2022-11-20T06:47:37.735Z,4.05
2022-11-20T06:48:42.284Z,5.03
2022-11-20T06:49:43.924Z,4.82
2022-11-20T06:50:45.792Z,5.25
2022-11-20T06:51:47.554Z,4.68
2022-11-20T06:52:49.535Z,5.25
2022-11-20T06:53:54.404Z,8.27
2022-11-20T06:54:56.387Z,4.50
2022-11-20T06:56:01.006Z,4.88
2022-11-20T06:57:02.743Z,4.95
2022-11-20T06:58:04.444Z,5.95
2022-11-20T06:59:07.940Z,4.65
2022-11-20T07:00:12.063Z,4.90
2022-11-20T07:01:15.120Z,7.10
2022-11-20T07:02:17.699Z,5.97
2022-11-20T07:03:19.489Z,6.43
2022-11-20T07:04:21.555Z,5.30
2022-11-20T07:05:23.256Z,4.70
2022-11-20T07:06:25.043Z,6.60
2022-11-20T07:07:26.889Z,6.80
2022-11-20T07:08:29.433Z,5.40
2022-11-20T07:09:31.286Z,5.03
2022-11-20T07:10:33.457Z,4.70
2022-11-20T07:11:36.206Z,4.82
2022-11-20T07:12:38.132Z,5.45
2022-11-20T07:13:40.007Z,5.57
2022-11-20T07:14:41.681Z,4.60
2022-11-20T07:15:43.600Z,5.00
2022-11-20T07:16:45.340Z,4.97
2022-11-20T07:17:47.339Z,4.68
2022-11-20T07:18:51.073Z,5.82
2022-11-20T07:19:53.124Z,4.93
2022-11-20T07:20:55.174Z,4.95
2022-11-20T07:21:57.453Z,5.60
2022-11-20T07:22:59.800Z,5.35
2022-11-20T07:24:01.598Z,5.47
2022-11-20T07:25:04.321Z,4.25
2022-11-20T07:26:07.837Z,7.13
2022-11-20T07:27:09.556Z,7.38
2022-11-20T07:28:11.739Z,4.65
2022-11-20T07:29:13.457Z,5.30
2022-11-20T07:30:16.499Z,4.47
2022-11-20T07:31:19.565Z,5.80
2022-11-20T07:32:21.731Z,3.67
2022-11-20T07:33:23.515Z,5.60
2022-11-20T07:34:25.229Z,5.25
2022-11-20T07:35:27.161Z,5.22
2022-11-20T07:36:29.210Z,5.10
2022-11-20T07:37:31.392Z,4.25
2022-11-20T07:38:33.149Z,4.80
2022-11-20T07:39:37.301Z,5.57
2022-11-20T07:40:40.633Z,5.63
2022-11-20T07:41:42.568Z,6.00
2022-11-20T07:42:55.430Z,4.18
2022-11-20T07:43:57.239Z,4.60
2022-11-20T07:44:59.080Z,4.95
2022-11-20T07:46:01.171Z,4.63
2022-11-20T07:47:04.645Z,4.28
2022-11-20T07:48:06.596Z,5.13
2022-11-20T07:49:08.845Z,4.70
2022-11-20T07:50:11.750Z,4.70
2022-11-20T07:51:14.464Z,5.05
2022-11-20T07:52:19.822Z,6.68
2022-11-20T07:53:22.923Z,5.13
2022-11-20T07:54:24.728Z,4.80
2022-11-20T07:55:26.548Z,5.22
2022-11-20T07:56:28.292Z,4.90
2022-11-20T07:57:30.099Z,4.63
2022-11-20T07:58:34.085Z,4.13
2022-11-20T07:59:36.952Z,5.82
2022-11-20T08:00:38.721Z,5.30
2022-11-20T08:01:41.211Z,4.25
2022-11-20T08:02:43.256Z,4.90
2022-11-20T08:03:45.268Z,3.75
2022-11-20T08:04:47.296Z,5.20
2022-11-20T08:05:49.404Z,4.90
2022-11-20T08:06:53.256Z,5.20
2022-11-20T08:07:55.042Z,5.72
2022-11-20T08:08:57.142Z,4.68
2022-11-20T08:09:58.952Z,5.57
2022-11-20T08:11:19.602Z,4.53
2022-11-20T08:12:41.183Z,3.63
2022-11-20T08:14:01.807Z,6.55
2022-11-20T08:15:08.508Z,4.97
2022-11-20T08:16:14.395Z,3.95
2022-11-20T08:17:16.303Z,4.80
2022-11-20T08:18:36.940Z,5.05
2022-11-20T08:19:38.968Z,5.80
2022-11-20T08:20:40.918Z,4.45
2022-11-20T08:21:43.136Z,5.47
2022-11-20T08:22:46.000Z,5.15
2022-11-20T08:23:47.685Z,4.70
2022-11-20T08:24:51.630Z,5.00
2022-11-20T08:25:53.467Z,5.38
2022-11-20T08:26:56.238Z,4.30
2022-11-20T08:28:10.284Z,5.85
2022-11-20T08:29:17.745Z,5.32
2022-11-20T08:30:21.078Z,5.30
2022-11-20T08:31:24.949Z,4.68
2022-11-20T08:32:26.818Z,4.40
2022-11-20T08:33:29.179Z,4.68
2022-11-20T08:34:31.180Z,4.10
2022-11-20T08:35:39.594Z,5.05
2022-11-20T08:36:41.460Z,5.05
2022-11-20T08:37:44.633Z,5.05
2022-11-20T08:38:51.145Z,5.57
2022-11-20T08:39:54.533Z,3.97
2022-11-20T08:41:19.948Z,5.07
2022-11-20T08:42:23.344Z,3.97
2022-11-20T08:43:25.177Z,5.13
2022-11-20T08:44:27.235Z,5.05
2022-11-20T08:45:33.678Z,4.65
2022-11-20T08:46:45.168Z,3.92
2022-11-20T08:47:47.537Z,4.15
2022-11-20T08:48:49.466Z,4.10
2022-11-20T08:49:51.345Z,4.60
2022-11-20T08:50:53.124Z,4.47
2022-11-20T08:51:56.300Z,3.95
2022-11-20T08:53:04.412Z,4.32
2022-11-20T08:54:07.405Z,4.72
2022-11-20T08:55:10.358Z,4.75
2022-11-20T08:56:12.719Z,2.95
2022-11-20T08:57:14.420Z,6.38
2022-11-20T08:58:16.269Z,4.20
2022-11-20T08:59:36.739Z,4.65
2022-11-20T09:00:41.203Z,4.57
2022-11-20T09:01:43.121Z,3.83
2022-11-20T09:02:44.815Z,4.78
2022-11-20T09:03:47.053Z,4.10
2022-11-20T09:04:48.917Z,5.65
2022-11-20T09:05:51.784Z,4.93
2022-11-20T09:06:53.720Z,4.78
2022-11-20T09:07:59.490Z,4.82
2022-11-20T09:09:06.310Z,11.60
2022-11-20T09:10:25.564Z,10.50
2022-11-20T09:11:27.432Z,6.25
2022-11-20T09:12:29.214Z,6.03
2022-11-20T09:13:31.951Z,4.25
2022-11-20T09:14:35.273Z,3.67
2022-11-20T09:15:37.389Z,4.63
2022-11-20T09:16:39.608Z,4.43
2022-11-20T09:17:41.638Z,3.63
2022-11-20T09:18:43.679Z,4.05
2022-11-20T09:19:47.251Z,4.50
2022-11-20T09:20:51.604Z,3.58
2022-11-20T09:21:58.260Z,4.65
2022-11-20T09:23:01.487Z,4.25
2022-11-20T09:24:06.353Z,4.82
2022-11-20T09:25:08.813Z,3.53
2022-11-20T09:26:13.050Z,3.80
2022-11-20T09:27:15.043Z,4.15
2022-11-20T09:28:18.757Z,3.90
2022-11-20T09:29:20.917Z,4.18
2022-11-20T09:30:23.030Z,3.20
2022-11-20T09:31:27.640Z,5.97
2022-11-20T09:32:29.606Z,4.80
2022-11-20T09:33:31.289Z,4.38
2022-11-20T09:34:33.349Z,3.67
2022-11-20T09:35:35.385Z,3.58
2022-11-20T09:36:38.569Z,2.75
2022-11-20T09:37:40.417Z,3.42
2022-11-20T09:38:42.267Z,3.45
2022-11-20T09:39:44.378Z,5.43
2022-11-20T09:40:58.988Z,5.28
2022-11-20T09:42:16.330Z,3.28
2022-11-20T09:43:37.864Z,3.78
2022-11-20T09:45:15.808Z,3.60
2022-11-20T09:46:33.275Z,3.40
2022-11-20T09:47:41.034Z,4.25
2022-11-20T09:49:07.714Z,3.65
2022-11-20T09:50:29.543Z,3.40
2022-11-20T09:51:57.910Z,3.55
2022-11-20T09:53:05.504Z,3.47
2022-11-20T09:54:19.351Z,3.80
2022-11-20T09:55:24.977Z,4.22
2022-11-20T09:56:27.306Z,4.20
2022-11-20T09:57:41.168Z,3.75
2022-11-20T09:58:55.611Z,3.55
2022-11-20T10:00:00.412Z,4.43
2022-11-20T10:01:17.840Z,3.15
2022-11-20T10:02:42.039Z,3.72
2022-11-20T10:04:16.328Z,3.75
2022-11-20T10:05:26.897Z,4.28
2022-11-20T10:07:04.089Z,5.80
2022-11-20T10:08:19.972Z,3.38
2022-11-20T10:09:51.657Z,4.90
2022-11-20T10:11:21.736Z,5.55
2022-11-20T10:12:54.526Z,4.82
2022-11-20T10:14:08.108Z,5.05
2022-11-20T10:15:32.363Z,4.18
2022-11-20T10:16:42.764Z,3.83
2022-11-20T10:18:01.268Z,3.25
2022-11-20T10:19:24.625Z,4.18
2022-11-20T10:20:43.711Z,3.55
2022-11-20T10:21:57.014Z,4.85
2022-11-20T10:23:25.391Z,4.53
2022-11-20T10:24:54.175Z,2.97
2022-11-20T10:26:18.803Z,3.50
2022-11-20T10:27:45.530Z,4.20
2022-11-20T10:29:19.090Z,3.80
2022-11-20T10:30:23.140Z,4.13
2022-11-20T10:31:37.151Z,3.58
2022-11-20T10:32:42.388Z,4.20
2022-11-20T10:34:11.662Z,3.38
2022-11-20T10:35:21.176Z,4.78
2022-11-20T10:36:31.298Z,4.22
2022-11-20T10:37:36.536Z,4.53
2022-11-20T10:38:44.196Z,4.85
2022-11-20T10:39:55.726Z,3.25
2022-11-20T10:41:25.719Z,3.28
2022-11-20T10:42:35.385Z,3.08
2022-11-20T10:43:37.330Z,3.80
2022-11-20T10:45:05.656Z,3.50
2022-11-20T10:46:17.722Z,2.70
2022-11-20T10:47:21.629Z,4.13
2022-11-20T10:48:28.488Z,4.15
2022-11-20T10:49:32.975Z,3.53
2022-11-20T10:50:38.835Z,4.47
2022-11-20T10:51:58.512Z,3.72
2022-11-20T10:53:21.968Z,3.28
2022-11-20T10:54:54.704Z,3.17
2022-11-20T10:56:03.566Z,3.42
2022-11-20T10:57:37.822Z,3.90
2022-11-20T10:59:04.709Z,3.55
2022-11-20T11:00:10.422Z,3.10
2022-11-20T11:01:24.670Z,4.32
2022-11-20T11:02:35.860Z,3.63
2022-11-20T11:03:38.303Z,3.22
2022-11-20T11:04:55.078Z,3.67
2022-11-20T11:06:09.732Z,3.30
2022-11-20T11:07:35.041Z,3.58
2022-11-20T11:08:41.232Z,4.13
2022-11-20T11:09:49.299Z,4.35
2022-11-20T11:11:17.174Z,3.45
2022-11-20T11:12:23.058Z,4.10
2022-11-20T11:13:27.736Z,4.20
2022-11-20T11:14:29.709Z,3.80
2022-11-20T11:15:38.796Z,3.25
2022-11-20T11:16:59.589Z,3.50
2022-11-20T11:18:01.266Z,3.78
2022-11-20T11:19:15.122Z,4.10
2022-11-20T11:20:19.634Z,4.18
2022-11-20T11:21:26.178Z,4.30
2022-11-20T11:22:34.496Z,3.58
2022-11-20T11:23:37.563Z,4.35
2022-11-20T11:24:43.333Z,2.88
2022-11-20T11:25:59.602Z,4.60
2022-11-20T11:27:16.911Z,3.28
2022-11-20T11:28:25.950Z,4.15
2022-11-20T11:29:30.543Z,3.88
2022-11-20T11:30:43.141Z,3.30
2022-11-20T11:31:45.023Z,6.60
2022-11-20T11:32:49.405Z,11.20
2022-11-20T11:33:51.398Z,4.93
2022-11-20T11:35:08.265Z,4.70
2022-11-20T11:36:20.993Z,6.57
2022-11-20T11:37:23.879Z,4.28
2022-11-20T11:38:36.380Z,5.07
2022-11-20T11:39:42.406Z,4.18
2022-11-20T11:40:45.138Z,4.38
2022-11-20T11:41:47.753Z,4.95
2022-11-20T11:42:57.754Z,4.47
2022-11-20T11:44:34.808Z,4.30
2022-11-20T11:45:40.769Z,4.40
2022-11-20T11:46:56.542Z,3.40
2022-11-20T11:48:02.068Z,4.60
2022-11-20T11:49:06.505Z,3.95
2022-11-20T11:50:11.360Z,4.25
2022-11-20T11:51:13.725Z,3.95
2022-11-20T11:52:23.760Z,3.53
2022-11-20T11:53:28.643Z,4.95
2022-11-20T11:54:48.931Z,5.25
2022-11-20T11:56:06.743Z,4.82
2022-11-20T11:57:35.535Z,5.95
2022-11-20T11:58:52.930Z,3.55
2022-11-20T12:00:02.842Z,4.38
2022-11-20T12:01:27.749Z,4.47
2022-11-20T12:02:50.799Z,3.72
2022-11-20T12:04:21.563Z,4.15
2022-11-20T12:05:49.405Z,4.35
2022-11-20T12:07:18.392Z,3.53
2022-11-20T12:08:52.327Z,4.30
2022-11-20T12:09:58.649Z,3.88
2022-11-20T12:11:31.592Z,3.33
2022-11-20T12:12:42.173Z,5.45
2022-11-20T12:13:51.799Z,4.82
2022-11-20T12:14:55.910Z,4.25
2022-11-20T12:15:57.714Z,5.72
2022-11-20T12:16:59.649Z,3.80
2022-11-20T12:18:02.128Z,4.63
2022-11-20T12:19:14.754Z,4.20
2022-11-20T12:21:48.265Z,4.38
2022-11-20T12:23:01.870Z,4.53
2022-11-20T12:24:33.406Z,4.90
2022-11-20T12:25:37.651Z,6.60
2022-11-20T12:26:45.912Z,4.07
2022-11-20T12:27:59.595Z,3.65
2022-11-20T12:29:24.684Z,4.10
2022-11-20T12:30:27.239Z,5.38
2022-11-20T12:31:37.699Z,5.28
2022-11-20T12:32:54.417Z,4.00
2022-11-20T12:34:24.785Z,3.90
2022-11-20T12:35:54.197Z,4.05
2022-11-20T12:37:21.626Z,4.80
2022-11-20T12:39:04.909Z,4.15
2022-11-20T12:40:37.989Z,4.47
2022-11-20T12:42:11.622Z,4.40
2022-11-20T12:43:41.680Z,4.03
2022-11-20T12:45:10.717Z,3.97
2022-11-20T12:46:36.691Z,3.50
2022-11-20T12:47:57.522Z,4.35
2022-11-20T12:49:27.969Z,4.93
2022-11-20T12:51:13.383Z,4.90
2022-11-20T12:52:26.246Z,4.32
2022-11-20T12:53:49.483Z,4.35
2022-11-20T12:55:15.742Z,3.88
2022-11-20T12:56:25.250Z,4.15
2022-11-20T12:57:59.389Z,4.00
2022-11-20T12:59:01.220Z,5.45
2022-11-20T13:00:18.015Z,3.72
2022-11-20T13:01:44.880Z,4.35
2022-11-20T13:03:23.512Z,5.82
2022-11-20T13:04:40.227Z,4.93
2022-11-20T13:06:05.567Z,4.25
2022-11-20T13:07:12.799Z,5.40
2022-11-20T13:08:28.821Z,4.88
2022-11-20T13:09:32.295Z,5.03
2022-11-20T13:10:37.220Z,4.00
2022-11-20T13:11:42.272Z,6.40
2022-11-20T13:12:52.713Z,5.72
2022-11-20T13:14:21.459Z,4.63
2022-11-20T13:15:52.550Z,4.03
2022-11-20T13:17:18.562Z,5.32
2022-11-20T13:18:20.733Z,5.22
2022-11-20T13:19:22.881Z,5.85
2022-11-20T13:20:27.731Z,21.17
2022-11-20T13:21:46.105Z,4.80
2022-11-20T13:22:53.572Z,3.38
2022-11-20T13:24:08.963Z,4.43
2022-11-20T13:25:16.275Z,3.75
2022-11-20T13:26:24.423Z,4.43
2022-11-20T13:27:26.457Z,4.90
2022-11-20T13:28:30.563Z,4.55
2022-11-20T13:29:34.352Z,5.10
2022-11-20T13:30:38.166Z,6.85
2022-11-20T13:31:45.491Z,4.57
2022-11-20T13:32:54.592Z,4.65
2022-11-20T13:33:57.729Z,3.60
2022-11-20T13:35:01.350Z,4.45
2022-11-20T13:36:09.664Z,6.00
2022-11-20T13:37:27.695Z,6.95
2022-11-20T13:38:49.583Z,4.65
2022-11-20T13:39:51.431Z,5.00
2022-11-20T13:41:24.621Z,5.00
2022-11-20T13:42:29.309Z,4.25
2022-11-20T13:43:42.020Z,5.88
2022-11-20T13:44:50.677Z,5.00
2022-11-20T13:45:57.162Z,6.68
2022-11-20T13:46:59.163Z,4.40
2022-11-20T13:48:25.223Z,4.50
2022-11-20T13:49:43.831Z,6.30
2022-11-20T13:51:05.748Z,5.72
2022-11-20T13:52:38.540Z,4.93
2022-11-20T13:54:29.029Z,3.53
2022-11-20T13:55:55.365Z,3.83
2022-11-20T13:57:27.267Z,4.25
2022-11-20T13:59:14.849Z,3.45
2022-11-20T14:00:18.492Z,2.97
2022-11-20T14:01:29.942Z,3.90
2022-11-20T14:02:33.326Z,3.65
2022-11-20T14:05:00.915Z,3.85
2022-11-20T14:06:11.686Z,3.80
2022-11-20T14:07:14.093Z,4.85
2022-11-20T14:08:42.429Z,5.72
2022-11-20T14:09:53.981Z,4.32
2022-11-20T14:11:27.061Z,4.47
2022-11-20T14:12:41.198Z,5.20
2022-11-20T14:14:02.207Z,5.38
2022-11-20T14:15:04.199Z,3.40
2022-11-20T14:16:06.104Z,4.45
2022-11-20T14:17:21.316Z,4.50
2022-11-20T14:18:27.181Z,4.15
2022-11-20T14:19:31.528Z,4.65
2022-11-20T14:20:34.043Z,4.53
2022-11-20T14:21:36.717Z,4.75
2022-11-20T14:22:49.880Z,22.70
2022-11-20T14:23:54.921Z,4.18
2022-11-20T14:25:19.244Z,5.38
2022-11-20T14:26:21.468Z,4.13
2022-11-20T14:27:23.456Z,4.30
2022-11-20T14:28:31.168Z,4.25
2022-11-20T14:29:37.779Z,4.93
2022-11-20T14:30:45.598Z,4.07
2022-11-20T14:31:54.122Z,4.38
2022-11-20T14:33:01.408Z,4.20
2022-11-20T14:34:03.792Z,4.55
2022-11-20T14:35:10.988Z,5.18
2022-11-20T14:36:19.878Z,5.30
2022-11-20T14:37:25.141Z,3.65
2022-11-20T14:38:29.889Z,3.78
2022-11-20T14:39:38.236Z,3.70
2022-11-20T14:40:40.705Z,4.80
2022-11-20T14:41:54.714Z,4.20
2022-11-20T14:42:58.688Z,4.00
2022-11-20T14:44:01.487Z,4.47
2022-11-20T14:45:03.988Z,4.07
2022-11-20T14:46:09.031Z,5.50
2022-11-20T14:47:13.916Z,4.25
2022-11-20T14:48:19.033Z,3.78
2022-11-20T14:49:21.636Z,3.53
2022-11-20T14:50:26.437Z,4.43
2022-11-20T14:51:42.140Z,6.20
2022-11-20T14:52:53.579Z,3.90
2022-11-20T14:53:55.337Z,4.88
2022-11-20T14:55:02.102Z,4.50